createdAt,value
2018-08-06T00:00:34.310Z,54.60
2018-08-06T00:03:02.886Z,54.80
2018-08-06T00:05:31.515Z,53.90
2018-08-06T00:07:59.949Z,54.10
2018-08-06T00:10:28.897Z,54.10
2018-08-06T00:12:57.475Z,54.50
2018-08-06T00:15:26.099Z,55.20
2018-08-06T00:17:54.903Z,55.60
2018-08-06T00:20:23.613Z,55.30
2018-08-06T00:22:52.047Z,55.50
2018-08-06T00:25:20.718Z,55.70
2018-08-06T00:30:18.979Z,55.70
2018-08-06T00:32:48.257Z,55.70
2018-08-06T00:35:17.552Z,55.50
2018-08-06T00:37:46.044Z,55.60
2018-08-06T00:40:17.678Z,55.40
2018-08-06T00:42:46.767Z,55.50
2018-08-06T00:45:17.471Z,55.70
2018-08-06T00:47:46.935Z,55.70
2018-08-06T00:50:15.527Z,56.10
2018-08-06T00:52:44.317Z,56.60
2018-08-06T00:55:15.129Z,56.30
2018-08-06T00:57:43.658Z,56.40
2018-08-06T01:00:14.602Z,56.40
2018-08-06T01:02:43.073Z,56.60
2018-08-06T01:05:13.162Z,56.60
2018-08-06T01:07:42.246Z,56.80
2018-08-06T01:10:15.110Z,56.80
2018-08-06T01:12:43.962Z,57.10
2018-08-06T01:15:14.398Z,57.10
2018-08-06T01:17:42.967Z,57.10
2018-08-06T01:20:12.824Z,57.50
2018-08-06T01:22:42.213Z,56.70
2018-08-06T01:25:10.955Z,56.40
2018-08-06T01:27:39.514Z,56.60
2018-08-06T01:30:10.357Z,56.60
2018-08-06T01:32:39.564Z,56.80
2018-08-06T01:35:09.742Z,56.80
2018-08-06T01:37:39.211Z,56.70
2018-08-06T01:40:10.795Z,56.80
2018-08-06T01:42:39.886Z,57.20
2018-08-06T01:45:09.552Z,57.10
2018-08-06T01:47:38.872Z,57.50
2018-08-06T01:50:09.308Z,57.60
2018-08-06T01:52:38.072Z,57.50
2018-08-06T01:55:06.961Z,57.60
2018-08-06T01:57:35.451Z,57.80
2018-08-06T02:00:06.886Z,58.20
2018-08-06T02:02:35.324Z,58.20
2018-08-06T02:05:04.057Z,58.00
2018-08-06T02:07:33.012Z,58.50
2018-08-06T02:10:01.601Z,58.50
2018-08-06T02:12:30.382Z,58.80
2018-08-06T02:14:59.350Z,58.90
2018-08-06T02:17:27.783Z,59.00
2018-08-06T02:19:56.254Z,58.60
2018-08-06T02:22:24.751Z,58.40
2018-08-06T02:24:53.450Z,58.60
2018-08-06T02:27:22.214Z,58.40
2018-08-06T02:29:50.895Z,58.20
2018-08-06T02:32:19.921Z,58.20
2018-08-06T02:34:48.686Z,58.10
2018-08-06T02:37:17.214Z,58.10
2018-08-06T02:39:46.077Z,58.10
2018-08-06T02:42:15.871Z,58.30
2018-08-06T02:44:44.318Z,58.90
2018-08-06T02:47:12.930Z,58.90
2018-08-06T02:49:41.770Z,59.40
2018-08-06T02:52:10.500Z,59.50
2018-08-06T02:54:39.394Z,59.20
2018-08-06T02:57:08.010Z,59.60
2018-08-06T02:59:36.770Z,60.00
2018-08-06T03:02:05.328Z,60.80
2018-08-06T03:04:34.225Z,60.60
2018-08-06T03:07:02.795Z,60.70
2018-08-06T03:09:31.537Z,61.50
2018-08-06T03:12:00.152Z,61.10
2018-08-06T03:14:28.671Z,61.10
2018-08-06T03:16:57.294Z,60.90
2018-08-06T03:19:25.921Z,61.30
2018-08-06T03:21:54.472Z,61.70
2018-08-06T03:24:23.297Z,62.70
2018-08-06T03:26:52.286Z,61.80
2018-08-06T03:29:20.731Z,60.50
2018-08-06T03:31:50.410Z,60.80
2018-08-06T03:34:20.019Z,60.70
2018-08-06T03:36:48.608Z,61.00
2018-08-06T03:39:17.364Z,60.00
2018-08-06T03:41:45.877Z,60.50
2018-08-06T03:46:42.649Z,60.60
2018-08-06T03:49:11.077Z,61.10
2018-08-06T03:51:40.405Z,61.10
2018-08-06T03:54:09.216Z,61.70
2018-08-06T03:56:38.466Z,61.40
2018-08-06T03:59:06.945Z,61.90
2018-08-06T04:01:36.415Z,61.60
2018-08-06T04:04:05.147Z,61.90
2018-08-06T04:06:33.650Z,62.10
2018-08-06T04:09:02.093Z,62.70
2018-08-06T04:11:30.577Z,63.20
2018-08-06T04:13:59.021Z,63.00
2018-08-06T04:16:38.965Z,62.90
2018-08-06T04:19:08.492Z,62.90
2018-08-06T04:21:38.502Z,63.00
2018-08-06T04:24:07.676Z,62.90
2018-08-06T04:26:36.798Z,63.10
2018-08-06T04:29:05.788Z,62.80
2018-08-06T04:31:34.670Z,62.40
2018-08-06T04:34:03.465Z,63.10
2018-08-06T04:36:32.794Z,62.20
2018-08-06T04:39:01.548Z,62.70
2018-08-06T04:41:30.154Z,62.30
2018-08-06T04:43:59.306Z,63.10
2018-08-06T04:46:28.298Z,63.50
2018-08-06T04:48:57.107Z,64.10
2018-08-06T04:51:26.661Z,64.30
2018-08-06T04:53:55.454Z,64.70
2018-08-06T04:56:24.067Z,64.20
2018-08-06T04:58:52.557Z,64.40
2018-08-06T05:01:22.106Z,64.00
2018-08-06T05:03:50.697Z,63.80
2018-08-06T05:06:19.180Z,62.30
2018-08-06T05:08:47.633Z,62.10
2018-08-06T05:11:16.188Z,62.50
2018-08-06T05:13:44.704Z,63.30
2018-08-06T05:16:13.395Z,63.30
2018-08-06T05:18:41.926Z,63.20
2018-08-06T05:21:10.643Z,62.50
2018-08-06T05:24:00.212Z,62.60
2018-08-06T05:26:29.694Z,62.50
2018-08-06T05:28:58.212Z,62.50
2018-08-06T05:31:27.875Z,62.50
2018-08-06T05:33:57.230Z,62.90
2018-08-06T06:58:23.897Z,63.10
2018-08-06T07:00:52.357Z,67.10
2018-08-06T07:03:20.845Z,66.50
2018-08-06T07:05:49.463Z,66.20
2018-08-06T07:08:18.348Z,66.20
2018-08-06T07:10:46.847Z,65.80
2018-08-06T07:13:15.344Z,65.80
2018-08-06T07:15:44.175Z,65.60
2018-08-06T07:18:12.663Z,66.00
2018-08-06T07:20:41.195Z,66.10
2018-08-06T07:23:09.674Z,65.90
2018-08-06T07:25:38.134Z,65.50
2018-08-06T07:28:06.664Z,65.70
2018-08-06T07:30:35.379Z,66.40
2018-08-06T07:33:03.894Z,65.70
2018-08-06T07:35:32.627Z,66.40
2018-08-06T07:38:01.125Z,66.00
2018-08-06T07:40:30.791Z,65.90
2018-08-06T07:42:59.889Z,65.70
2018-08-06T07:45:29.043Z,65.90
2018-08-06T07:47:57.570Z,65.90
2018-08-06T07:50:26.500Z,65.90
2018-08-06T07:52:54.958Z,65.90
2018-08-06T07:55:23.468Z,65.90
2018-08-06T07:57:52.006Z,66.10
2018-08-06T08:00:20.635Z,65.70
2018-08-06T08:02:49.169Z,65.60
2018-08-06T08:05:18.729Z,66.10
2018-08-06T08:07:48.005Z,66.00
2018-08-06T08:10:21.623Z,65.50
2018-08-06T08:12:50.258Z,65.70
2018-08-06T08:15:26.730Z,65.70
2018-08-06T08:17:56.836Z,65.40
2018-08-06T08:20:26.773Z,65.50
2018-08-06T08:22:55.264Z,65.50
2018-08-06T08:25:24.156Z,65.60
2018-08-06T08:27:52.947Z,65.30
2018-08-06T08:30:21.602Z,65.40
2018-08-06T08:32:50.091Z,65.40
2018-08-06T08:35:18.801Z,65.00
2018-08-06T08:37:47.281Z,65.20
2018-08-06T08:40:18.008Z,65.10
2018-08-06T08:42:46.883Z,66.20
2018-08-06T08:45:17.267Z,65.60
2018-08-06T08:47:46.178Z,65.20
2018-08-06T08:50:16.985Z,64.80
2018-08-06T08:52:45.527Z,64.90
2018-08-06T08:55:15.579Z,64.80
2018-08-06T08:57:44.245Z,64.90
2018-08-06T09:00:15.214Z,65.30
2018-08-06T09:02:45.281Z,65.20
2018-08-06T09:05:14.356Z,64.00
2018-08-06T09:07:42.918Z,63.60
2018-08-06T09:10:12.789Z,63.50
2018-08-06T09:12:41.942Z,63.30
2018-08-06T09:15:24.090Z,63.40
2018-08-06T09:17:52.907Z,62.60
2018-08-06T09:20:21.904Z,61.80
2018-08-06T09:22:50.836Z,61.50
2018-08-06T09:25:19.429Z,60.90
2018-08-06T09:30:18.933Z,60.00
2018-08-06T09:32:49.517Z,59.10
2018-08-06T09:35:18.739Z,58.70
2018-08-06T09:37:47.217Z,58.90
2018-08-06T09:40:16.874Z,58.90
2018-08-06T09:42:46.346Z,59.30
2018-08-06T09:45:16.040Z,58.80
2018-08-06T09:47:45.844Z,58.60
2018-08-06T09:50:15.286Z,59.10
2018-08-06T09:52:44.767Z,59.50
2018-08-06T09:55:26.458Z,59.70
2018-08-06T09:57:54.979Z,60.00
2018-08-06T10:00:28.939Z,59.90
2018-08-06T10:02:59.573Z,59.70
2018-08-06T10:05:28.940Z,59.30
2018-08-06T10:07:57.644Z,58.90
2018-08-06T10:10:26.110Z,59.10
2018-08-06T10:12:54.622Z,59.20
2018-08-06T10:15:23.478Z,59.30
2018-08-06T10:17:53.615Z,59.70
2018-08-06T10:20:23.618Z,58.40
2018-08-06T10:22:52.081Z,57.80
2018-08-06T10:25:20.635Z,57.50
2018-08-06T10:27:49.215Z,57.00
2018-08-06T10:30:21.744Z,57.20
2018-08-06T10:32:50.318Z,57.50
2018-08-06T10:35:19.602Z,57.20
2018-08-06T10:37:48.100Z,56.80
2018-08-06T10:40:20.099Z,57.00
2018-08-06T10:42:49.271Z,56.90
2018-08-06T10:45:19.009Z,56.20
2018-08-06T10:47:47.756Z,55.30
2018-08-06T10:50:16.265Z,54.70
2018-08-06T10:52:44.778Z,54.70
2018-08-06T10:55:14.058Z,54.60
2018-08-06T10:57:43.726Z,55.10
2018-08-06T11:00:16.531Z,53.20
2018-08-06T11:02:45.086Z,53.80
2018-08-06T11:05:14.679Z,52.90
2018-08-06T11:07:43.146Z,53.10
2018-08-06T11:10:16.395Z,52.40
2018-08-06T11:12:44.815Z,51.10
2018-08-06T11:15:17.019Z,52.10
2018-08-06T11:17:45.965Z,52.00
2018-08-06T11:20:16.245Z,52.90
2018-08-06T11:25:17.768Z,51.50
2018-08-06T11:27:46.893Z,51.10
2018-08-06T11:30:17.513Z,51.70
2018-08-06T11:32:46.487Z,49.90
2018-08-06T11:35:15.843Z,49.70
2018-08-06T11:37:44.432Z,49.70
2018-08-06T11:40:14.291Z,50.00
2018-08-06T11:42:43.634Z,50.40
2018-08-06T11:45:15.467Z,51.60
2018-08-06T11:47:44.275Z,51.70
2018-08-06T11:50:13.232Z,52.20
2018-08-06T11:52:41.779Z,51.90
2018-08-06T11:55:11.099Z,51.20
2018-08-06T11:57:40.009Z,51.00
2018-08-06T12:00:10.948Z,49.20
2018-08-06T12:02:40.216Z,50.60
2018-08-06T12:05:09.263Z,51.40
2018-08-06T12:07:38.446Z,50.10
2018-08-06T12:10:11.308Z,51.00
2018-08-06T12:12:40.415Z,50.20
2018-08-06T12:15:10.316Z,50.90
2018-08-06T12:17:40.294Z,50.80
2018-08-06T12:20:11.459Z,49.10
2018-08-06T12:22:42.137Z,49.10
2018-08-06T12:25:12.390Z,50.10
2018-08-06T12:27:42.033Z,49.30
2018-08-06T12:30:15.101Z,49.20
2018-08-06T12:32:44.452Z,49.40
2018-08-06T12:35:13.190Z,49.50
2018-08-06T12:37:41.711Z,49.60
2018-08-06T12:40:18.903Z,49.90
2018-08-06T12:42:47.681Z,49.50
2018-08-06T12:47:46.029Z,48.70
2018-08-06T14:12:13.580Z,49.80
2018-08-06T14:14:42.370Z,46.60
2018-08-06T14:17:10.925Z,46.00
2018-08-06T14:19:39.618Z,46.40
2018-08-06T14:22:08.158Z,46.20
2018-08-06T14:24:36.620Z,46.00
2018-08-06T14:27:05.255Z,45.30
2018-08-06T14:29:33.819Z,43.60
2018-08-06T14:32:02.532Z,45.40
2018-08-06T14:34:31.208Z,44.80
2018-08-06T14:36:59.712Z,44.30
2018-08-06T14:39:28.282Z,43.80
2018-08-06T14:41:56.758Z,43.80
2018-08-06T14:44:25.368Z,43.20
2018-08-06T14:46:53.939Z,43.00
2018-08-06T14:49:22.507Z,42.50
2018-08-06T14:51:51.010Z,42.20
2018-08-06T14:54:20.160Z,42.50
2018-08-06T14:56:48.649Z,43.00
2018-08-06T14:59:17.185Z,43.50
2018-08-06T15:01:45.663Z,42.30
2018-08-06T15:04:14.317Z,40.80
2018-08-06T15:06:42.794Z,42.30
2018-08-06T15:09:13.401Z,42.40
2018-08-06T15:11:43.000Z,40.70
2018-08-06T15:14:12.257Z,41.80
2018-08-06T15:16:41.692Z,42.30
2018-08-06T15:19:10.996Z,41.80
2018-08-06T15:21:40.237Z,41.90
2018-08-06T15:24:08.803Z,41.70
2018-08-06T15:26:37.938Z,42.90
2018-08-06T15:29:06.648Z,41.60
2018-08-06T15:31:35.533Z,41.30
2018-08-06T15:34:04.247Z,40.90
2018-08-06T15:36:32.959Z,41.60
2018-08-06T15:39:02.344Z,42.10
2018-08-06T15:41:31.856Z,41.00
2018-08-06T15:44:00.833Z,41.70
2018-08-06T15:46:29.483Z,42.50
2018-08-06T15:48:58.116Z,42.70
2018-08-06T15:51:26.926Z,42.90
2018-08-06T15:53:55.693Z,41.90
2018-08-06T15:56:24.096Z,41.20
2018-08-06T15:58:52.631Z,42.10
2018-08-06T16:01:21.410Z,40.80
2018-08-06T16:03:50.362Z,40.70
2018-08-06T16:06:19.072Z,41.00
2018-08-06T16:08:47.796Z,41.20
2018-08-06T16:11:16.321Z,41.70
2018-08-06T16:13:44.848Z,42.00
2018-08-06T16:16:13.668Z,43.20
2018-08-06T16:18:42.090Z,42.00
2018-08-06T16:21:10.615Z,42.10
2018-08-06T16:23:39.715Z,42.20
2018-08-06T16:26:08.188Z,42.80
2018-08-06T16:31:04.984Z,42.60
2018-08-06T16:33:33.754Z,42.30
2018-08-06T16:36:03.232Z,42.50
2018-08-06T16:38:32.782Z,42.50
2018-08-06T16:41:02.290Z,42.00
2018-08-06T16:43:31.662Z,42.00
2018-08-06T16:46:01.447Z,42.50
2018-08-06T16:48:30.064Z,43.20
2018-08-06T16:50:58.680Z,42.40
2018-08-06T16:53:27.076Z,41.90
2018-08-06T16:55:55.702Z,42.50
2018-08-06T16:58:24.130Z,42.30
2018-08-06T17:00:52.745Z,42.30
2018-08-06T17:03:21.409Z,42.80
2018-08-06T17:05:49.884Z,42.90
2018-08-06T17:08:18.409Z,44.50
2018-08-06T17:10:46.930Z,43.90
2018-08-06T17:13:15.447Z,43.20
2018-08-06T17:15:44.052Z,42.60
2018-08-06T17:18:12.468Z,42.30
2018-08-06T17:20:41.077Z,42.50
2018-08-06T17:23:09.532Z,42.60
2018-08-06T17:25:38.441Z,42.80
2018-08-06T17:28:06.976Z,42.30
2018-08-06T17:30:35.510Z,42.40
2018-08-06T17:33:04.067Z,42.60
2018-08-06T17:35:33.347Z,42.70
2018-08-06T17:38:02.411Z,42.90
2018-08-06T17:40:31.135Z,42.50
2018-08-06T17:42:59.563Z,42.40
2018-08-06T17:45:28.174Z,42.10
2018-08-06T17:47:56.607Z,42.00
2018-08-06T17:50:25.089Z,41.70
2018-08-06T17:52:54.184Z,41.60
2018-08-06T17:55:23.340Z,42.10
2018-08-06T17:57:51.891Z,42.00
2018-08-06T18:00:20.817Z,42.30
2018-08-06T18:02:49.317Z,42.10
2018-08-06T18:05:18.422Z,42.00
2018-08-06T18:07:46.986Z,41.80
2018-08-06T18:10:16.675Z,41.80
2018-08-06T18:12:45.867Z,41.60
2018-08-06T18:15:14.553Z,41.80
2018-08-06T18:17:43.197Z,41.70
2018-08-06T18:20:14.596Z,42.10
2018-08-06T18:22:43.105Z,42.00
2018-08-06T18:25:13.448Z,42.20
2018-08-06T18:27:42.492Z,42.40
2018-08-06T18:30:14.534Z,43.00
2018-08-06T18:32:43.434Z,43.40
2018-08-06T18:35:14.578Z,43.10
2018-08-06T18:37:43.704Z,43.10
2018-08-06T18:40:14.922Z,42.90
2018-08-06T18:42:43.447Z,43.10
2018-08-06T18:45:14.431Z,43.10
2018-08-06T18:47:44.049Z,43.10
2018-08-06T18:50:13.752Z,43.10
2018-08-06T18:52:43.365Z,43.10
2018-08-06T18:55:12.856Z,43.20
2018-08-06T18:57:41.658Z,43.10
2018-08-06T19:00:14.533Z,43.30
2018-08-06T19:02:42.984Z,43.30
2018-08-06T19:05:11.794Z,43.00
2018-08-06T19:07:40.733Z,43.20
2018-08-06T19:10:10.377Z,43.50
2018-08-06T19:12:44.117Z,43.40
2018-08-06T19:15:12.985Z,43.40
2018-08-06T19:17:47.261Z,43.40
2018-08-06T19:20:16.001Z,43.40
2018-08-06T19:22:44.858Z,43.50
2018-08-06T19:25:19.222Z,43.40
2018-08-06T19:27:48.129Z,43.30
2018-08-06T19:30:17.002Z,43.30
2018-08-06T19:32:45.419Z,43.40
2018-08-06T19:35:13.993Z,43.60
2018-08-06T19:37:48.327Z,43.70
2018-08-06T19:40:16.928Z,43.80
2018-08-06T19:42:50.841Z,43.90
2018-08-06T19:45:19.367Z,44.30
2018-08-06T19:47:47.951Z,44.00
2018-08-06T19:50:21.913Z,43.80
2018-08-06T19:56:22.868Z,43.80
2018-08-06T19:58:51.299Z,43.80
2018-08-06T20:01:19.741Z,44.00
2018-08-06T20:03:48.349Z,43.90
2018-08-06T20:06:16.837Z,44.30
2018-08-06T20:08:45.507Z,44.00
2018-08-06T20:13:42.265Z,43.90
2018-08-06T20:16:11.153Z,43.70
2018-08-06T20:18:40.086Z,44.00
2018-08-06T20:21:08.654Z,44.20
2018-08-06T20:23:37.164Z,44.10
2018-08-06T20:26:05.786Z,44.10
2018-08-06T20:28:34.237Z,44.20
2018-08-06T20:31:02.830Z,44.20
2018-08-06T20:33:31.374Z,44.20
2018-08-06T20:35:59.922Z,44.40
2018-08-06T20:38:28.336Z,44.50
2018-08-06T20:40:56.764Z,44.70
2018-08-06T20:45:53.545Z,44.90
2018-08-06T20:48:22.295Z,45.20
2018-08-06T20:50:51.942Z,45.10
2018-08-06T20:53:20.427Z,45.40
2018-08-06T20:55:49.070Z,45.40
2018-08-06T20:58:17.903Z,45.50
2018-08-06T21:00:47.492Z,45.70
2018-08-06T21:03:16.036Z,45.70
2018-08-06T21:08:13.862Z,45.80
2018-08-06T21:10:43.491Z,45.90
2018-08-06T21:13:12.315Z,46.00
2018-08-06T21:15:41.181Z,45.90
2018-08-06T21:18:09.681Z,45.90
2018-08-06T21:20:38.982Z,46.70
2018-08-06T21:23:07.485Z,46.00
2018-08-06T21:25:36.125Z,46.00
2018-08-06T21:28:04.645Z,46.00
2018-08-06T21:30:34.594Z,46.20
2018-08-06T21:33:03.596Z,46.10
2018-08-06T21:35:32.314Z,46.20
2018-08-06T21:38:00.770Z,46.30
2018-08-06T21:40:29.361Z,46.50
2018-08-06T21:42:58.280Z,46.60
2018-08-06T21:45:26.706Z,46.90
2018-08-06T21:47:55.152Z,47.00
2018-08-06T21:50:23.680Z,46.80
2018-08-06T21:52:52.378Z,46.80
2018-08-06T21:55:21.014Z,46.50
2018-08-06T21:57:49.513Z,46.60
2018-08-06T22:00:29.298Z,46.90
2018-08-06T22:02:58.142Z,47.00
2018-08-06T22:05:26.813Z,47.20
2018-08-06T22:07:55.275Z,47.30
2018-08-06T22:10:23.797Z,47.30
2018-08-06T22:12:52.785Z,47.60
2018-08-06T22:15:21.523Z,48.20
2018-08-06T22:17:50.012Z,48.50
2018-08-06T22:20:18.928Z,48.60
2018-08-06T22:22:47.464Z,48.80
2018-08-06T22:25:16.063Z,49.20
2018-08-06T22:27:44.550Z,49.50
2018-08-06T22:30:13.148Z,49.90
2018-08-06T22:32:42.003Z,50.30
2018-08-06T22:35:13.434Z,50.20
2018-08-06T22:37:42.787Z,50.60
2018-08-06T22:40:12.751Z,50.80
2018-08-06T22:42:41.865Z,51.00
2018-08-06T22:45:11.877Z,51.20
2018-08-06T22:47:43.222Z,51.40
2018-08-06T22:50:13.501Z,51.60
2018-08-06T22:52:42.207Z,51.40
2018-08-06T22:55:11.897Z,51.30
2018-08-06T22:57:40.773Z,51.30
2018-08-06T23:00:10.894Z,51.20
2018-08-06T23:02:40.500Z,51.10
2018-08-06T23:05:09.692Z,51.10
2018-08-06T23:07:38.685Z,51.30
2018-08-06T23:10:14.086Z,51.30
2018-08-06T23:12:42.734Z,51.60
2018-08-06T23:15:15.341Z,51.80
2018-08-06T23:17:44.808Z,51.90
2018-08-06T23:20:14.320Z,52.30
2018-08-06T23:22:42.802Z,52.70
2018-08-06T23:25:11.396Z,53.40
2018-08-06T23:27:40.126Z,54.10
2018-08-06T23:30:11.158Z,54.60
2018-08-06T23:32:39.962Z,54.80
2018-08-06T23:35:10.072Z,55.20
2018-08-06T23:37:39.797Z,54.70
2018-08-06T23:40:09.502Z,55.00
2018-08-06T23:42:39.146Z,55.20
2018-08-06T23:45:09.470Z,55.20
2018-08-06T23:47:39.037Z,55.90
2018-08-06T23:50:09.446Z,56.20
2018-08-06T23:52:38.149Z,56.60
2018-08-06T23:55:08.080Z,56.90
2018-08-06T23:58:07.816Z,56.80
